Rm Thomas — FNMP — position and weather

sailwx.info

Track history (hours):
 
Tides and Currents Weather Stations Pressure Air Temp Water Temp Dewpoint Dewpoint Depression Visibility Wind Speed Wind Dir Waves Ship Positions

Rm Thomas

Last reported at 2018-Apr-25 05:48 UTC. Time now 2018-Apr-27 01:01 UTC.
Position N 44°53' W 000°32'.

Length 25 m; draft 4 m.

Type: Tug. MMSI: 228278700.

Date/timePositionNaut miles runAvg speedWind from/ knotsBaromVisibWave heightAir tempDewpointWater temp
2018-Apr-25 05:48N 44°53' W 000°32'0 0.0
2018-Apr-25 05:28N 44°53' W 000°32'0 0.0
2018-Apr-25 04:56N 44°53' W 000°32'6 6.6
2018-Apr-25 04:03N 44°59' W 000°33'0 8.8
2018-Apr-25 04:00N 44°59' W 000°33'  
2018-Apr-22 23:16N 44°53' W 000°32'0 0.0
2018-Apr-22 22:36N 44°53' W 000°32'0 0.0
2018-Apr-22 22:29N 44°53' W 000°32'0 0.0
2018-Apr-22 22:00N 44°53' W 000°32'1 2.5
2018-Apr-22 21:30N 44°54' W 000°33'612.0
2018-Apr-22 21:00N 45°00' W 000°34'0 0.3
2018-Apr-22 20:27N 45°00' W 000°34'2 4.7
2018-Apr-22 20:00N 44°58' W 000°32'3 6.5
2018-Apr-22 19:29N 44°55' W 000°33'2 3.5
2018-Apr-22 18:58N 44°53' W 000°32'0 0.0
2018-Apr-22 05:13N 44°53' W 000°32'0 0.0
2018-Apr-22 04:57N 44°53' W 000°32'0 0.0
2018-Apr-22 01:12N 44°53' W 000°32'0 0.0
2018-Apr-22 00:59N 44°53' W 000°32'  
2018-Apr-18 08:03N 44°58' W 000°33'110.6
2018-Apr-18 07:58N 44°59' W 000°33'1 2.5
2018-Apr-18 07:28N 44°60' W 000°33'0 0.1
2018-Apr-18 06:54N 44°60' W 000°33'1 1.7
2018-Apr-18 06:29N 45°00' W 000°34'0 0.5
2018-Apr-18 06:00N 45°00' W 000°34'3 6.6
2018-Apr-18 05:30N 44°57' W 000°33'4 1.2
2018-Apr-18 02:26N 44°53' W 000°32'0 0.0
2018-Apr-18 02:00N 44°53' W 000°32'0 0.0
2018-Apr-18 01:16N 44°53' W 000°32'0 0.0
2018-Apr-18 00:56N 44°53' W 000°32'0 0.0
2018-Apr-18 00:30N 44°53' W 000°32'0 0.0
2018-Apr-18 00:00N 44°53' W 000°32'0 0.0
2018-Apr-17 23:24N 44°53' W 000°32'0 0.0
2018-Apr-17 23:00N 44°53' W 000°32'0 0.0
2018-Apr-17 22:28N 44°53' W 000°32'0 0.0
2018-Apr-17 02:53N 44°53' W 000°32'0 0.0
2018-Apr-16 22:53N 44°53' W 000°32'0 0.0
2018-Apr-16 22:01N 44°53' W 000°32'0 0.0
2018-Apr-16 21:44N 44°53' W 000°32'0 0.0
2018-Apr-16 21:23N 44°53' W 000°32'0 0.0
2018-Apr-16 21:00N 44°53' W 000°32'  
Track history (hours):
 
Tides and Currents Weather Stations Pressure Air Temp Water Temp Dewpoint Dewpoint Depression Visibility Wind Speed Wind Dir Waves Ship Positions

Rm Thomas

Last reported at 2018-Apr-25 05:48 UTC. Time now 2018-Apr-27 01:01 UTC.
Position N 44°53' W 000°32'.

Length 25 m; draft 4 m.

Type: Tug. MMSI: 228278700.

Date/timePositionNaut miles runAvg speedWind from/ knotsBaromVisibWave heightAir tempDewpointWater temp
2018-Apr-25 05:48N 44°53' W 000°32'0 0.0
2018-Apr-25 05:28N 44°53' W 000°32'0 0.0
2018-Apr-25 04:56N 44°53' W 000°32'6 6.6
2018-Apr-25 04:03N 44°59' W 000°33'0 8.8
2018-Apr-25 04:00N 44°59' W 000°33'  
2018-Apr-22 23:16N 44°53' W 000°32'0 0.0
2018-Apr-22 22:36N 44°53' W 000°32'0 0.0
2018-Apr-22 22:29N 44°53' W 000°32'0 0.0
2018-Apr-22 22:00N 44°53' W 000°32'1 2.5
2018-Apr-22 21:30N 44°54' W 000°33'612.0
2018-Apr-22 21:00N 45°00' W 000°34'0 0.3
2018-Apr-22 20:27N 45°00' W 000°34'2 4.7
2018-Apr-22 20:00N 44°58' W 000°32'3 6.5
2018-Apr-22 19:29N 44°55' W 000°33'2 3.5
2018-Apr-22 18:58N 44°53' W 000°32'0 0.0
2018-Apr-22 05:13N 44°53' W 000°32'0 0.0
2018-Apr-22 04:57N 44°53' W 000°32'0 0.0
2018-Apr-22 01:12N 44°53' W 000°32'0 0.0
2018-Apr-22 00:59N 44°53' W 000°32'  
2018-Apr-18 08:03N 44°58' W 000°33'110.6
2018-Apr-18 07:58N 44°59' W 000°33'1 2.5
2018-Apr-18 07:28N 44°60' W 000°33'0 0.1
2018-Apr-18 06:54N 44°60' W 000°33'1 1.7
2018-Apr-18 06:29N 45°00' W 000°34'0 0.5
2018-Apr-18 06:00N 45°00' W 000°34'3 6.6
2018-Apr-18 05:30N 44°57' W 000°33'4 1.2
2018-Apr-18 02:26N 44°53' W 000°32'0 0.0
2018-Apr-18 02:00N 44°53' W 000°32'0 0.0
2018-Apr-18 01:16N 44°53' W 000°32'0 0.0
2018-Apr-18 00:56N 44°53' W 000°32'0 0.0
2018-Apr-18 00:30N 44°53' W 000°32'0 0.0
2018-Apr-18 00:00N 44°53' W 000°32'0 0.0
2018-Apr-17 23:24N 44°53' W 000°32'0 0.0
2018-Apr-17 23:00N 44°53' W 000°32'0 0.0
2018-Apr-17 22:28N 44°53' W 000°32'0 0.0
2018-Apr-17 02:53N 44°53' W 000°32'0 0.0
2018-Apr-16 22:53N 44°53' W 000°32'0 0.0
2018-Apr-16 22:01N 44°53' W 000°32'0 0.0
2018-Apr-16 21:44N 44°53' W 000°32'0 0.0
2018-Apr-16 21:23N 44°53' W 000°32'0 0.0
2018-Apr-16 21:00N 44°53' W 000°32'  

Dump ship's entire track history